Baia De Cascais — CSHJ — position and weather

sailwx.info

Track history (hours):
 
Tides and Currents Weather Stations Pressure Air Temp Water Temp Dewpoint Dewpoint Depression Visibility Wind Speed Wind Dir Waves Ship Positions

Baia De Cascais

Last reported at 2017-Aug-21 06:03 UTC. Time now 2017-Nov-24 16:19 UTC.
Position N 38°42' W 009°14'.
Warning: this ship's position is months out of date.

Length 16 m.

Type: Pilot. MMSI: 263670770.

Date/timePositionNaut miles runAvg speedWind from/ knotsBaromVisibWave heightAir tempDewpointWater temp
2017-Aug-21 06:03N 38°42' W 009°14'1 8.3
2017-Aug-21 05:59N 38°41' W 009°14'1 1.2
2017-Aug-21 05:31N 38°42' W 009°14'0 0.9
2017-Aug-21 05:01N 38°41' W 009°14'0 0.9
2017-Aug-21 04:31N 38°42' W 009°14'0 0.0
2017-Aug-21 03:59N 38°42' W 009°14'0 0.0
2017-Aug-21 03:30N 38°42' W 009°14'0 0.0
2017-Aug-21 03:01N 38°42' W 009°14'0 0.0
2017-Aug-21 02:31N 38°42' W 009°14'0 0.0
2017-Aug-21 02:00N 38°42' W 009°14'0 0.0
2017-Aug-21 01:30N 38°42' W 009°14'1 1.5
2017-Aug-21 01:00N 38°41' W 009°14'1 1.5
2017-Aug-21 00:30N 38°42' W 009°14'0 0.0
2017-Aug-20 23:56N 38°42' W 009°14'0 0.0
2017-Aug-20 23:29N 38°42' W 009°14'0 0.0
2017-Aug-20 23:00N 38°42' W 009°14'0 0.0
2017-Aug-20 22:29N 38°42' W 009°14'0 0.0
2017-Aug-20 22:00N 38°42' W 009°14'0 0.9
2017-Aug-20 21:30N 38°41' W 009°14'0 0.0
2017-Aug-20 07:23N 38°42' W 009°14'0 0.0
2017-Aug-20 07:00N 38°42' W 009°14'0 0.0
2017-Aug-20 06:30N 38°42' W 009°14'0 0.0
2017-Aug-20 06:00N 38°42' W 009°14'0 0.0
2017-Aug-20 05:30N 38°42' W 009°14'0 0.0
2017-Aug-20 05:00N 38°42' W 009°14'0 0.0
2017-Aug-20 04:30N 38°42' W 009°14'0 0.0
2017-Aug-20 04:00N 38°42' W 009°14'0 0.0
2017-Aug-20 03:30N 38°42' W 009°14'0 0.0
2017-Aug-20 03:00N 38°42' W 009°14'4 7.8
2017-Aug-20 02:30N 38°40' W 009°19'1 2.4
2017-Aug-20 02:00N 38°39' W 009°20'510.0
2017-Aug-20 01:30N 38°42' W 009°14'0 0.0
2017-Aug-20 01:00N 38°42' W 009°14'0 0.0
2017-Aug-20 00:30N 38°42' W 009°14'0 0.0
2017-Aug-20 00:00N 38°42' W 009°14'0 0.0
2017-Aug-19 23:29N 38°42' W 009°14'0 0.0
2017-Aug-19 23:00N 38°42' W 009°14'1 2.2
2017-Aug-19 22:30N 38°41' W 009°13'1 1.6
2017-Aug-19 22:00N 38°41' W 009°12'2 3.7
2017-Aug-19 21:30N 38°42' W 009°14'0 0.0
2017-Aug-19 20:57N 38°42' W 009°14'0 0.0
2017-Aug-19 20:30N 38°42' W 009°14'0 0.0
2017-Aug-19 20:00N 38°42' W 009°14'2 3.2
2017-Aug-19 19:30N 38°41' W 009°12'2 3.2
2017-Aug-19 19:00N 38°42' W 009°14'0 0.0
2017-Aug-19 18:29N 38°42' W 009°14'0 0.0
2017-Aug-19 05:55N 38°42' W 009°14'0 0.0
2017-Aug-19 05:26N 38°42' W 009°14'0 0.0
2017-Aug-19 04:59N 38°42' W 009°14'0 0.0
2017-Aug-19 04:30N 38°42' W 009°14'0 0.0
2017-Aug-19 03:59N 38°42' W 009°14'0 0.0
2017-Aug-19 03:30N 38°42' W 009°14'0 0.0
2017-Aug-19 03:00N 38°42' W 009°14'0 0.0
2017-Aug-19 02:29N 38°42' W 009°14'0 0.0
2017-Aug-19 01:58N 38°42' W 009°14'0 0.0
2017-Aug-19 01:30N 38°42' W 009°14'0 0.0
2017-Aug-19 00:59N 38°42' W 009°14'0 0.0
2017-Aug-19 00:28N 38°42' W 009°14'0 0.0
2017-Aug-19 00:00N 38°42' W 009°14'0 0.0
2017-Aug-18 23:30N 38°42' W 009°14'0 0.0
2017-Aug-18 23:00N 38°42' W 009°14'0 0.0
2017-Aug-18 22:30N 38°42' W 009°14'0 0.0
2017-Aug-18 21:59N 38°42' W 009°14'0 0.0
2017-Aug-18 08:17N 38°42' W 009°14'2 7.3
2017-Aug-18 07:59N 38°41' W 009°12'1 3.0
2017-Aug-18 07:30N 38°41' W 009°13'1 0.7
2017-Aug-18 06:30N 38°42' W 009°14'0 0.0
2017-Aug-18 05:58N 38°42' W 009°14'0 0.0
2017-Aug-18 05:30N 38°42' W 009°14'0 0.0
2017-Aug-18 04:58N 38°42' W 009°14'0 0.0
2017-Aug-18 04:26N 38°42' W 009°14'0 0.0
2017-Aug-18 04:00N 38°42' W 009°14'0 0.0
2017-Aug-18 03:30N 38°42' W 009°14'0 0.0
2017-Aug-18 02:59N 38°42' W 009°14'0 0.0
2017-Aug-18 02:29N 38°42' W 009°14'0 0.0
2017-Aug-18 02:00N 38°42' W 009°14'0 0.0
2017-Aug-18 01:30N 38°42' W 009°14'0 0.0
2017-Aug-18 00:59N 38°42' W 009°14'0 0.0
2017-Aug-18 00:30N 38°42' W 009°14'0 0.0
2017-Aug-17 23:58N 38°42' W 009°14'0 0.0
2017-Aug-17 23:30N 38°42' W 009°14'5 9.9
2017-Aug-17 23:00N 38°42' W 009°08'3 6.4
2017-Aug-17 22:30N 38°42' W 009°12'2 3.8
2017-Aug-17 22:00N 38°42' W 009°14'0 0.0
2017-Aug-17 21:29N 38°42' W 009°14'0 0.0
2017-Aug-17 21:00N 38°42' W 009°14'0 0.0
2017-Aug-17 20:29N 38°42' W 009°14'0 0.0
2017-Aug-17 19:59N 38°42' W 009°14'0 0.0
2017-Aug-17 19:30N 38°42' W 009°14'0 0.0
2017-Aug-17 18:55N 38°42' W 009°14'0 0.0
2017-Aug-17 18:30N 38°42' W 009°14'0 0.0
2017-Aug-17 04:06N 38°42' W 009°14'113.1
2017-Aug-17 04:00N 38°41' W 009°13'1 1.1
2017-Aug-17 03:30N 38°41' W 009°13'1 1.6
2017-Aug-17 03:00N 38°42' W 009°14'0 0.0
2017-Aug-17 02:30N 38°42' W 009°14'0 0.0
2017-Aug-17 02:00N 38°42' W 009°14'0 0.0
2017-Aug-17 01:29N 38°42' W 009°14'0 0.0
2017-Aug-17 00:49N 38°42' W 009°14'0 0.0
2017-Aug-17 00:30N 38°42' W 009°14'0 0.0
2017-Aug-16 23:54N 38°42' W 009°14'0 0.0
2017-Aug-16 23:24N 38°42' W 009°14'0 0.0
2017-Aug-16 23:00N 38°42' W 009°14'0 0.0
2017-Aug-16 22:30N 38°42' W 009°14'0 0.0
2017-Aug-16 22:00N 38°42' W 009°14'0 0.0
2017-Aug-16 21:30N 38°42' W 009°14'0 0.0
2017-Aug-16 21:00N 38°42' W 009°14'0 0.0
2017-Aug-16 20:30N 38°42' W 009°14'0 0.0
2017-Aug-16 19:58N 38°42' W 009°14'0 0.0
2017-Aug-16 19:30N 38°42' W 009°14'0 0.0
2017-Aug-16 19:00N 38°42' W 009°14'0 0.6
2017-Aug-16 18:30N 38°41' W 009°14'0 0.0
2017-Aug-16 06:00N 38°42' W 009°14'0 0.0
2017-Aug-16 05:30N 38°42' W 009°14'0 0.0
2017-Aug-16 04:58N 38°42' W 009°14'1 1.7
2017-Aug-16 04:30N 38°41' W 009°13'1 1.5
2017-Aug-16 04:00N 38°42' W 009°14'0 0.0
2017-Aug-15 21:44N 38°42' W 009°14'1 4.4
2017-Aug-15 21:30N 38°41' W 009°13'1 2.0
2017-Aug-15 21:00N 38°42' W 009°14'0 0.0
2017-Aug-15 20:30N 38°42' W 009°14'0 0.0
2017-Aug-15 20:00N 38°42' W 009°14'0 0.0
2017-Aug-15 06:34N 38°42' W 009°14'0 0.0
2017-Aug-15 06:30N 38°42' W 009°14'0 0.0
2017-Aug-15 06:00N 38°42' W 009°14'0 0.0
2017-Aug-15 05:30N 38°42' W 009°14'0 0.0
2017-Aug-15 04:59N 38°42' W 009°14'0 0.0
2017-Aug-15 04:29N 38°42' W 009°14'0 0.0
2017-Aug-15 04:00N 38°42' W 009°14'0 0.0
2017-Aug-15 03:30N 38°42' W 009°14'0 0.0
2017-Aug-15 02:58N 38°42' W 009°14'0 0.0
2017-Aug-15 02:30N 38°42' W 009°14'0 0.0
2017-Aug-15 01:59N 38°42' W 009°14'0 0.0
2017-Aug-15 01:30N 38°42' W 009°14'0 0.0
2017-Aug-15 01:00N 38°42' W 009°14'0 0.0
2017-Aug-15 00:30N 38°42' W 009°14'0 0.0
2017-Aug-14 23:59N 38°42' W 009°14'0 0.0
2017-Aug-14 23:30N 38°42' W 009°14'0 0.0
2017-Aug-14 23:01N 38°42' W 009°14'0 0.0
2017-Aug-14 22:27N 38°42' W 009°14'0 0.0
2017-Aug-14 22:00N 38°42' W 009°14'0 0.2
2017-Aug-14 21:30N 38°42' W 009°14'0 0.2
2017-Aug-14 21:00N 38°42' W 009°14'0 0.0
2017-Aug-14 20:29N 38°42' W 009°14'0 0.0
2017-Aug-14 19:59N 38°42' W 009°14'0 0.0
2017-Aug-14 19:29N 38°42' W 009°14'0 0.0
2017-Aug-14 18:57N 38°42' W 009°14'0 0.0
2017-Aug-14 18:27N 38°42' W 009°14'0 0.0
2017-Aug-14 18:00N 38°42' W 009°14'1 2.0
2017-Aug-14 17:30N 38°41' W 009°13'1 1.9
2017-Aug-14 16:58N 38°42' W 009°14'0 0.0
2017-Aug-14 16:30N 38°42' W 009°14'0 0.0
2017-Aug-14 16:00N 38°42' W 009°14'0 0.0
2017-Aug-14 15:30N 38°42' W 009°14'0 0.0
2017-Aug-14 14:58N 38°42' W 009°14'0 0.0
2017-Aug-14 14:30N 38°42' W 009°14'0 0.0
2017-Aug-14 14:00N 38°42' W 009°14'0 0.0
2017-Aug-14 13:30N 38°42' W 009°14'0 0.0
2017-Aug-14 13:00N 38°42' W 009°14'0 0.0
2017-Aug-14 12:30N 38°42' W 009°14'0 0.0
2017-Aug-14 12:00N 38°42' W 009°14'0 0.0
2017-Aug-14 11:30N 38°42' W 009°14'0 0.0
2017-Aug-14 11:00N 38°42' W 009°14'0 0.0
2017-Aug-14 10:30N 38°42' W 009°14'0 0.0
2017-Aug-14 10:00N 38°42' W 009°14'0 0.0
2017-Aug-14 09:28N 38°42' W 009°14'0 0.0
2017-Aug-14 08:59N 38°42' W 009°14'2 4.5
2017-Aug-14 08:30N 38°41' W 009°12'0 0.1
2017-Aug-14 08:01N 38°41' W 009°12'2 4.1
2017-Aug-14 07:30N 38°42' W 009°14'0 0.0
2017-Aug-14 07:00N 38°42' W 009°14'0 0.0
2017-Aug-14 06:28N 38°42' W 009°14'0 0.0
2017-Aug-14 06:00N 38°42' W 009°14'0 0.0
2017-Aug-14 05:30N 38°42' W 009°14'0 0.7
2017-Aug-14 05:00N 38°41' W 009°14'0 0.7
2017-Aug-14 04:29N 38°42' W 009°14'0 0.0
2017-Aug-14 03:58N 38°42' W 009°14'0 0.0
2017-Aug-14 03:30N 38°42' W 009°14'4 7.1
2017-Aug-14 03:01N 38°41' W 009°18'3 5.3
2017-Aug-14 02:30N 38°41' W 009°15'1 1.7
2017-Aug-14 01:59N 38°42' W 009°14'0 0.0
2017-Aug-14 01:30N 38°42' W 009°14'0 0.0
2017-Aug-14 01:00N 38°42' W 009°14'0 0.0
2017-Aug-14 00:29N 38°42' W 009°14'0 0.0
2017-Aug-14 00:00N 38°42' W 009°14'0 0.0
2017-Aug-13 23:30N 38°42' W 009°14'0 0.0
2017-Aug-13 23:00N 38°42' W 009°14'0 0.0
2017-Aug-13 22:30N 38°42' W 009°14'0 0.0
2017-Aug-13 21:58N 38°42' W 009°14'0 0.0
2017-Aug-13 21:26N 38°42' W 009°14'0 0.0
2017-Aug-13 20:56N 38°42' W 009°14'0 0.0
2017-Aug-13 20:30N 38°42' W 009°14'0 0.0
2017-Aug-13 19:59N 38°42' W 009°14'0 0.0
2017-Aug-13 19:31N 38°42' W 009°14'0 0.0
2017-Aug-13 19:00N 38°42' W 009°14'0 0.0
2017-Aug-13 18:30N 38°42' W 009°14'0 0.0
2017-Aug-13 18:00N 38°42' W 009°14'0 0.0
2017-Aug-13 17:30N 38°42' W 009°14'0 0.0
2017-Aug-13 17:00N 38°42' W 009°14'0 0.0
2017-Aug-13 16:30N 38°42' W 009°14'0 0.0
2017-Aug-13 16:00N 38°42' W 009°14'0 0.0
2017-Aug-13 15:30N 38°42' W 009°14'0 0.0
2017-Aug-13 14:59N 38°42' W 009°14'0 0.0
2017-Aug-13 14:30N 38°42' W 009°14'0 0.0
2017-Aug-13 13:54N 38°42' W 009°14'0 0.0
2017-Aug-13 13:30N 38°42' W 009°14'0 0.0
2017-Aug-13 12:59N 38°42' W 009°14'0 0.0
2017-Aug-13 12:28N 38°42' W 009°14'0 0.0
2017-Aug-13 12:00N 38°42' W 009°14'0 0.0
2017-Aug-13 11:30N 38°42' W 009°14'0 0.0
2017-Aug-13 10:59N 38°42' W 009°14'0 0.0
2017-Aug-13 10:28N 38°42' W 009°14'0 0.0
2017-Aug-13 09:59N 38°42' W 009°14'0 0.0
2017-Aug-13 09:30N 38°42' W 009°14'0 0.0
2017-Aug-13 09:00N 38°42' W 009°14'0 0.0
2017-Aug-13 08:29N 38°42' W 009°14'0 0.0
2017-Aug-13 08:00N 38°42' W 009°14'0 0.0
2017-Aug-13 07:30N 38°42' W 009°14'0 0.0
2017-Aug-13 07:00N 38°42' W 009°14'0 0.0
2017-Aug-13 06:30N 38°42' W 009°14'0 0.0
2017-Aug-13 06:00N 38°42' W 009°14'0 0.0
2017-Aug-13 05:29N 38°42' W 009°14'0 0.0
2017-Aug-13 05:00N 38°42' W 009°14'0 0.0
2017-Aug-13 04:30N 38°42' W 009°14'0 0.0
2017-Aug-13 04:00N 38°42' W 009°14'0 0.0
2017-Aug-13 03:30N 38°42' W 009°14'0 0.0
2017-Aug-13 03:00N 38°42' W 009°14'0 0.0
2017-Aug-13 02:30N 38°42' W 009°14'0 0.0
2017-Aug-13 02:00N 38°42' W 009°14'0 0.0
2017-Aug-13 01:29N 38°42' W 009°14'0 0.0
2017-Aug-13 01:00N 38°42' W 009°14'0 0.0
2017-Aug-13 00:29N 38°42' W 009°14'0 0.0
2017-Aug-13 00:00N 38°42' W 009°14'0 0.0
2017-Aug-12 23:30N 38°42' W 009°14'0 0.0
2017-Aug-12 23:00N 38°42' W 009°14'0 0.0
2017-Aug-12 22:30N 38°42' W 009°14'0 0.0
2017-Aug-12 22:00N 38°42' W 009°14'0 0.0
2017-Aug-12 21:30N 38°42' W 009°14'0 0.0
2017-Aug-12 21:00N 38°42' W 009°14'0 0.0
2017-Aug-12 20:30N 38°42' W 009°14'0 0.0
2017-Aug-12 20:00N 38°42' W 009°14'0 0.0
2017-Aug-12 19:30N 38°42' W 009°14'2 4.2
2017-Aug-12 19:01N 38°41' W 009°12'2 3.7
2017-Aug-12 18:27N 38°42' W 009°14'0 0.0
2017-Aug-12 18:00N 38°42' W 009°14'0 0.0
2017-Aug-12 17:31N 38°42' W 009°14'0 0.0
2017-Aug-12 16:59N 38°42' W 009°14'0 0.0
2017-Aug-12 16:30N 38°42' W 009°14'0 0.0
2017-Aug-12 16:00N 38°42' W 009°14'2 3.8
2017-Aug-12 15:30N 38°41' W 009°16'2 0.3
2017-Aug-12 08:59N 38°42' W 009°14'714.4
2017-Aug-12 08:30N 38°40' W 009°23'2 3.8
2017-Aug-12 08:00N 38°42' W 009°25'0 0.0
2017-Aug-12 07:30N 38°42' W 009°25'1 2.6
2017-Aug-12 07:00N 38°40' W 009°24'4 7.0
2017-Aug-12 06:30N 38°39' W 009°20'510.7
2017-Aug-12 05:59N 38°42' W 009°14'0 0.0
2017-Aug-12 05:30N 38°42' W 009°14'0 0.0
2017-Aug-12 05:00N 38°42' W 009°14'0 0.0
2017-Aug-12 04:30N 38°42' W 009°14'0 0.0
2017-Aug-12 04:00N 38°42' W 009°14'0 0.0
2017-Aug-12 03:30N 38°42' W 009°14'0 0.0
2017-Aug-12 03:00N 38°42' W 009°14'0 0.0
2017-Aug-12 02:29N 38°42' W 009°14'0 0.0
2017-Aug-12 02:00N 38°42' W 009°14'0 0.0
2017-Aug-12 01:28N 38°42' W 009°14'2 3.3
2017-Aug-12 01:00N 38°41' W 009°12'2 3.1
2017-Aug-12 00:30N 38°42' W 009°14'0 0.9
2017-Aug-12 00:00N 38°41' W 009°14'0 0.9
2017-Aug-11 23:30N 38°42' W 009°14'0 0.0
2017-Aug-11 23:00N 38°42' W 009°14'0 0.0
2017-Aug-11 22:30N 38°42' W 009°14'0 0.0
2017-Aug-11 21:56N 38°42' W 009°14'0 0.0
2017-Aug-11 21:29N 38°42' W 009°14'0 0.0
2017-Aug-11 21:00N 38°42' W 009°14'0 0.0
2017-Aug-11 20:30N 38°42' W 009°14'0 0.0
2017-Aug-11 20:00N 38°42' W 009°14'0 0.0
2017-Aug-11 19:30N 38°42' W 009°14'0 0.0
2017-Aug-11 19:00N 38°42' W 009°14'3 5.1
2017-Aug-11 18:31N 38°41' W 009°17'3 5.0
2017-Aug-11 18:00N 38°42' W 009°14'0 0.0
2017-Aug-11 17:30N 38°42' W 009°14'0 0.0
2017-Aug-11 08:15N 38°42' W 009°14'2 8.7
2017-Aug-11 08:00N 38°41' W 009°12'1 1.3
2017-Aug-11 07:30N 38°41' W 009°12'2 3.0
2017-Aug-11 07:00N 38°42' W 009°14'0 0.0
2017-Aug-11 06:30N 38°42' W 009°14'  
Track history (hours):
 
Tides and Currents Weather Stations Pressure Air Temp Water Temp Dewpoint Dewpoint Depression Visibility Wind Speed Wind Dir Waves Ship Positions

Baia De Cascais

Last reported at 2017-Aug-21 06:03 UTC. Time now 2017-Nov-24 16:19 UTC.
Position N 38°42' W 009°14'.
Warning: this ship's position is months out of date.

Length 16 m.

Type: Pilot. MMSI: 263670770.

Date/timePositionNaut miles runAvg speedWind from/ knotsBaromVisibWave heightAir tempDewpointWater temp
2017-Aug-21 06:03N 38°42' W 009°14'1 8.3
2017-Aug-21 05:59N 38°41' W 009°14'1 1.2
2017-Aug-21 05:31N 38°42' W 009°14'0 0.9
2017-Aug-21 05:01N 38°41' W 009°14'0 0.9
2017-Aug-21 04:31N 38°42' W 009°14'0 0.0
2017-Aug-21 03:59N 38°42' W 009°14'0 0.0
2017-Aug-21 03:30N 38°42' W 009°14'0 0.0
2017-Aug-21 03:01N 38°42' W 009°14'0 0.0
2017-Aug-21 02:31N 38°42' W 009°14'0 0.0
2017-Aug-21 02:00N 38°42' W 009°14'0 0.0
2017-Aug-21 01:30N 38°42' W 009°14'1 1.5
2017-Aug-21 01:00N 38°41' W 009°14'1 1.5
2017-Aug-21 00:30N 38°42' W 009°14'0 0.0
2017-Aug-20 23:56N 38°42' W 009°14'0 0.0
2017-Aug-20 23:29N 38°42' W 009°14'0 0.0
2017-Aug-20 23:00N 38°42' W 009°14'0 0.0
2017-Aug-20 22:29N 38°42' W 009°14'0 0.0
2017-Aug-20 22:00N 38°42' W 009°14'0 0.9
2017-Aug-20 21:30N 38°41' W 009°14'0 0.0
2017-Aug-20 07:23N 38°42' W 009°14'0 0.0
2017-Aug-20 07:00N 38°42' W 009°14'0 0.0
2017-Aug-20 06:30N 38°42' W 009°14'0 0.0
2017-Aug-20 06:00N 38°42' W 009°14'0 0.0
2017-Aug-20 05:30N 38°42' W 009°14'0 0.0
2017-Aug-20 05:00N 38°42' W 009°14'0 0.0
2017-Aug-20 04:30N 38°42' W 009°14'0 0.0
2017-Aug-20 04:00N 38°42' W 009°14'0 0.0
2017-Aug-20 03:30N 38°42' W 009°14'0 0.0
2017-Aug-20 03:00N 38°42' W 009°14'4 7.8
2017-Aug-20 02:30N 38°40' W 009°19'1 2.4
2017-Aug-20 02:00N 38°39' W 009°20'510.0
2017-Aug-20 01:30N 38°42' W 009°14'0 0.0
2017-Aug-20 01:00N 38°42' W 009°14'0 0.0
2017-Aug-20 00:30N 38°42' W 009°14'0 0.0
2017-Aug-20 00:00N 38°42' W 009°14'0 0.0
2017-Aug-19 23:29N 38°42' W 009°14'0 0.0
2017-Aug-19 23:00N 38°42' W 009°14'1 2.2
2017-Aug-19 22:30N 38°41' W 009°13'1 1.6
2017-Aug-19 22:00N 38°41' W 009°12'2 3.7
2017-Aug-19 21:30N 38°42' W 009°14'0 0.0
2017-Aug-19 20:57N 38°42' W 009°14'0 0.0
2017-Aug-19 20:30N 38°42' W 009°14'0 0.0
2017-Aug-19 20:00N 38°42' W 009°14'2 3.2
2017-Aug-19 19:30N 38°41' W 009°12'2 3.2
2017-Aug-19 19:00N 38°42' W 009°14'0 0.0
2017-Aug-19 18:29N 38°42' W 009°14'0 0.0
2017-Aug-19 05:55N 38°42' W 009°14'0 0.0
2017-Aug-19 05:26N 38°42' W 009°14'0 0.0
2017-Aug-19 04:59N 38°42' W 009°14'0 0.0
2017-Aug-19 04:30N 38°42' W 009°14'0 0.0
2017-Aug-19 03:59N 38°42' W 009°14'0 0.0
2017-Aug-19 03:30N 38°42' W 009°14'0 0.0
2017-Aug-19 03:00N 38°42' W 009°14'0 0.0
2017-Aug-19 02:29N 38°42' W 009°14'0 0.0
2017-Aug-19 01:58N 38°42' W 009°14'0 0.0
2017-Aug-19 01:30N 38°42' W 009°14'0 0.0
2017-Aug-19 00:59N 38°42' W 009°14'0 0.0
2017-Aug-19 00:28N 38°42' W 009°14'0 0.0
2017-Aug-19 00:00N 38°42' W 009°14'0 0.0
2017-Aug-18 23:30N 38°42' W 009°14'0 0.0
2017-Aug-18 23:00N 38°42' W 009°14'0 0.0
2017-Aug-18 22:30N 38°42' W 009°14'0 0.0
2017-Aug-18 21:59N 38°42' W 009°14'0 0.0
2017-Aug-18 08:17N 38°42' W 009°14'2 7.3
2017-Aug-18 07:59N 38°41' W 009°12'1 3.0
2017-Aug-18 07:30N 38°41' W 009°13'1 0.7
2017-Aug-18 06:30N 38°42' W 009°14'0 0.0
2017-Aug-18 05:58N 38°42' W 009°14'0 0.0
2017-Aug-18 05:30N 38°42' W 009°14'0 0.0
2017-Aug-18 04:58N 38°42' W 009°14'0 0.0
2017-Aug-18 04:26N 38°42' W 009°14'0 0.0
2017-Aug-18 04:00N 38°42' W 009°14'0 0.0
2017-Aug-18 03:30N 38°42' W 009°14'0 0.0
2017-Aug-18 02:59N 38°42' W 009°14'0 0.0
2017-Aug-18 02:29N 38°42' W 009°14'0 0.0
2017-Aug-18 02:00N 38°42' W 009°14'0 0.0
2017-Aug-18 01:30N 38°42' W 009°14'0 0.0
2017-Aug-18 00:59N 38°42' W 009°14'0 0.0
2017-Aug-18 00:30N 38°42' W 009°14'0 0.0
2017-Aug-17 23:58N 38°42' W 009°14'0 0.0
2017-Aug-17 23:30N 38°42' W 009°14'5 9.9
2017-Aug-17 23:00N 38°42' W 009°08'3 6.4
2017-Aug-17 22:30N 38°42' W 009°12'2 3.8
2017-Aug-17 22:00N 38°42' W 009°14'0 0.0
2017-Aug-17 21:29N 38°42' W 009°14'0 0.0
2017-Aug-17 21:00N 38°42' W 009°14'0 0.0
2017-Aug-17 20:29N 38°42' W 009°14'0 0.0
2017-Aug-17 19:59N 38°42' W 009°14'0 0.0
2017-Aug-17 19:30N 38°42' W 009°14'0 0.0
2017-Aug-17 18:55N 38°42' W 009°14'0 0.0
2017-Aug-17 18:30N 38°42' W 009°14'0 0.0
2017-Aug-17 04:06N 38°42' W 009°14'113.1
2017-Aug-17 04:00N 38°41' W 009°13'1 1.1
2017-Aug-17 03:30N 38°41' W 009°13'1 1.6
2017-Aug-17 03:00N 38°42' W 009°14'0 0.0
2017-Aug-17 02:30N 38°42' W 009°14'0 0.0
2017-Aug-17 02:00N 38°42' W 009°14'0 0.0
2017-Aug-17 01:29N 38°42' W 009°14'0 0.0
2017-Aug-17 00:49N 38°42' W 009°14'0 0.0
2017-Aug-17 00:30N 38°42' W 009°14'0 0.0
2017-Aug-16 23:54N 38°42' W 009°14'0 0.0
2017-Aug-16 23:24N 38°42' W 009°14'0 0.0
2017-Aug-16 23:00N 38°42' W 009°14'0 0.0
2017-Aug-16 22:30N 38°42' W 009°14'0 0.0
2017-Aug-16 22:00N 38°42' W 009°14'0 0.0
2017-Aug-16 21:30N 38°42' W 009°14'0 0.0
2017-Aug-16 21:00N 38°42' W 009°14'0 0.0
2017-Aug-16 20:30N 38°42' W 009°14'0 0.0
2017-Aug-16 19:58N 38°42' W 009°14'0 0.0
2017-Aug-16 19:30N 38°42' W 009°14'0 0.0
2017-Aug-16 19:00N 38°42' W 009°14'0 0.6
2017-Aug-16 18:30N 38°41' W 009°14'0 0.0
2017-Aug-16 06:00N 38°42' W 009°14'0 0.0
2017-Aug-16 05:30N 38°42' W 009°14'0 0.0
2017-Aug-16 04:58N 38°42' W 009°14'1 1.7
2017-Aug-16 04:30N 38°41' W 009°13'1 1.5
2017-Aug-16 04:00N 38°42' W 009°14'0 0.0
2017-Aug-15 21:44N 38°42' W 009°14'1 4.4
2017-Aug-15 21:30N 38°41' W 009°13'1 2.0
2017-Aug-15 21:00N 38°42' W 009°14'0 0.0
2017-Aug-15 20:30N 38°42' W 009°14'0 0.0
2017-Aug-15 20:00N 38°42' W 009°14'0 0.0
2017-Aug-15 06:34N 38°42' W 009°14'0 0.0
2017-Aug-15 06:30N 38°42' W 009°14'0 0.0
2017-Aug-15 06:00N 38°42' W 009°14'0 0.0
2017-Aug-15 05:30N 38°42' W 009°14'0 0.0
2017-Aug-15 04:59N 38°42' W 009°14'0 0.0
2017-Aug-15 04:29N 38°42' W 009°14'0 0.0
2017-Aug-15 04:00N 38°42' W 009°14'0 0.0
2017-Aug-15 03:30N 38°42' W 009°14'0 0.0
2017-Aug-15 02:58N 38°42' W 009°14'0 0.0
2017-Aug-15 02:30N 38°42' W 009°14'0 0.0
2017-Aug-15 01:59N 38°42' W 009°14'0 0.0
2017-Aug-15 01:30N 38°42' W 009°14'0 0.0
2017-Aug-15 01:00N 38°42' W 009°14'0 0.0
2017-Aug-15 00:30N 38°42' W 009°14'0 0.0
2017-Aug-14 23:59N 38°42' W 009°14'0 0.0
2017-Aug-14 23:30N 38°42' W 009°14'0 0.0
2017-Aug-14 23:01N 38°42' W 009°14'0 0.0
2017-Aug-14 22:27N 38°42' W 009°14'0 0.0
2017-Aug-14 22:00N 38°42' W 009°14'0 0.2
2017-Aug-14 21:30N 38°42' W 009°14'0 0.2
2017-Aug-14 21:00N 38°42' W 009°14'0 0.0
2017-Aug-14 20:29N 38°42' W 009°14'0 0.0
2017-Aug-14 19:59N 38°42' W 009°14'0 0.0
2017-Aug-14 19:29N 38°42' W 009°14'0 0.0
2017-Aug-14 18:57N 38°42' W 009°14'0 0.0
2017-Aug-14 18:27N 38°42' W 009°14'0 0.0
2017-Aug-14 18:00N 38°42' W 009°14'1 2.0
2017-Aug-14 17:30N 38°41' W 009°13'1 1.9
2017-Aug-14 16:58N 38°42' W 009°14'0 0.0
2017-Aug-14 16:30N 38°42' W 009°14'0 0.0
2017-Aug-14 16:00N 38°42' W 009°14'0 0.0
2017-Aug-14 15:30N 38°42' W 009°14'0 0.0
2017-Aug-14 14:58N 38°42' W 009°14'0 0.0
2017-Aug-14 14:30N 38°42' W 009°14'0 0.0
2017-Aug-14 14:00N 38°42' W 009°14'0 0.0
2017-Aug-14 13:30N 38°42' W 009°14'0 0.0
2017-Aug-14 13:00N 38°42' W 009°14'0 0.0
2017-Aug-14 12:30N 38°42' W 009°14'0 0.0
2017-Aug-14 12:00N 38°42' W 009°14'0 0.0
2017-Aug-14 11:30N 38°42' W 009°14'0 0.0
2017-Aug-14 11:00N 38°42' W 009°14'0 0.0
2017-Aug-14 10:30N 38°42' W 009°14'0 0.0
2017-Aug-14 10:00N 38°42' W 009°14'0 0.0
2017-Aug-14 09:28N 38°42' W 009°14'0 0.0
2017-Aug-14 08:59N 38°42' W 009°14'2 4.5
2017-Aug-14 08:30N 38°41' W 009°12'0 0.1
2017-Aug-14 08:01N 38°41' W 009°12'2 4.1
2017-Aug-14 07:30N 38°42' W 009°14'0 0.0
2017-Aug-14 07:00N 38°42' W 009°14'0 0.0
2017-Aug-14 06:28N 38°42' W 009°14'0 0.0
2017-Aug-14 06:00N 38°42' W 009°14'0 0.0
2017-Aug-14 05:30N 38°42' W 009°14'0 0.7
2017-Aug-14 05:00N 38°41' W 009°14'0 0.7
2017-Aug-14 04:29N 38°42' W 009°14'0 0.0
2017-Aug-14 03:58N 38°42' W 009°14'0 0.0
2017-Aug-14 03:30N 38°42' W 009°14'4 7.1
2017-Aug-14 03:01N 38°41' W 009°18'3 5.3
2017-Aug-14 02:30N 38°41' W 009°15'1 1.7
2017-Aug-14 01:59N 38°42' W 009°14'0 0.0
2017-Aug-14 01:30N 38°42' W 009°14'0 0.0
2017-Aug-14 01:00N 38°42' W 009°14'0 0.0
2017-Aug-14 00:29N 38°42' W 009°14'0 0.0
2017-Aug-14 00:00N 38°42' W 009°14'0 0.0
2017-Aug-13 23:30N 38°42' W 009°14'0 0.0
2017-Aug-13 23:00N 38°42' W 009°14'0 0.0
2017-Aug-13 22:30N 38°42' W 009°14'0 0.0
2017-Aug-13 21:58N 38°42' W 009°14'0 0.0
2017-Aug-13 21:26N 38°42' W 009°14'0 0.0
2017-Aug-13 20:56N 38°42' W 009°14'0 0.0
2017-Aug-13 20:30N 38°42' W 009°14'0 0.0
2017-Aug-13 19:59N 38°42' W 009°14'0 0.0
2017-Aug-13 19:31N 38°42' W 009°14'0 0.0
2017-Aug-13 19:00N 38°42' W 009°14'0 0.0
2017-Aug-13 18:30N 38°42' W 009°14'0 0.0
2017-Aug-13 18:00N 38°42' W 009°14'0 0.0
2017-Aug-13 17:30N 38°42' W 009°14'0 0.0
2017-Aug-13 17:00N 38°42' W 009°14'0 0.0
2017-Aug-13 16:30N 38°42' W 009°14'0 0.0
2017-Aug-13 16:00N 38°42' W 009°14'0 0.0
2017-Aug-13 15:30N 38°42' W 009°14'0 0.0
2017-Aug-13 14:59N 38°42' W 009°14'0 0.0
2017-Aug-13 14:30N 38°42' W 009°14'0 0.0
2017-Aug-13 13:54N 38°42' W 009°14'0 0.0
2017-Aug-13 13:30N 38°42' W 009°14'0 0.0
2017-Aug-13 12:59N 38°42' W 009°14'0 0.0
2017-Aug-13 12:28N 38°42' W 009°14'0 0.0
2017-Aug-13 12:00N 38°42' W 009°14'0 0.0
2017-Aug-13 11:30N 38°42' W 009°14'0 0.0
2017-Aug-13 10:59N 38°42' W 009°14'0 0.0
2017-Aug-13 10:28N 38°42' W 009°14'0 0.0
2017-Aug-13 09:59N 38°42' W 009°14'0 0.0
2017-Aug-13 09:30N 38°42' W 009°14'0 0.0
2017-Aug-13 09:00N 38°42' W 009°14'0 0.0
2017-Aug-13 08:29N 38°42' W 009°14'0 0.0
2017-Aug-13 08:00N 38°42' W 009°14'0 0.0
2017-Aug-13 07:30N 38°42' W 009°14'0 0.0
2017-Aug-13 07:00N 38°42' W 009°14'0 0.0
2017-Aug-13 06:30N 38°42' W 009°14'0 0.0
2017-Aug-13 06:00N 38°42' W 009°14'0 0.0
2017-Aug-13 05:29N 38°42' W 009°14'0 0.0
2017-Aug-13 05:00N 38°42' W 009°14'0 0.0
2017-Aug-13 04:30N 38°42' W 009°14'0 0.0
2017-Aug-13 04:00N 38°42' W 009°14'0 0.0
2017-Aug-13 03:30N 38°42' W 009°14'0 0.0
2017-Aug-13 03:00N 38°42' W 009°14'0 0.0
2017-Aug-13 02:30N 38°42' W 009°14'0 0.0
2017-Aug-13 02:00N 38°42' W 009°14'0 0.0
2017-Aug-13 01:29N 38°42' W 009°14'0 0.0
2017-Aug-13 01:00N 38°42' W 009°14'0 0.0
2017-Aug-13 00:29N 38°42' W 009°14'0 0.0
2017-Aug-13 00:00N 38°42' W 009°14'0 0.0
2017-Aug-12 23:30N 38°42' W 009°14'0 0.0
2017-Aug-12 23:00N 38°42' W 009°14'0 0.0
2017-Aug-12 22:30N 38°42' W 009°14'0 0.0
2017-Aug-12 22:00N 38°42' W 009°14'0 0.0
2017-Aug-12 21:30N 38°42' W 009°14'0 0.0
2017-Aug-12 21:00N 38°42' W 009°14'0 0.0
2017-Aug-12 20:30N 38°42' W 009°14'0 0.0
2017-Aug-12 20:00N 38°42' W 009°14'0 0.0
2017-Aug-12 19:30N 38°42' W 009°14'2 4.2
2017-Aug-12 19:01N 38°41' W 009°12'2 3.7
2017-Aug-12 18:27N 38°42' W 009°14'0 0.0
2017-Aug-12 18:00N 38°42' W 009°14'0 0.0
2017-Aug-12 17:31N 38°42' W 009°14'0 0.0
2017-Aug-12 16:59N 38°42' W 009°14'0 0.0
2017-Aug-12 16:30N 38°42' W 009°14'0 0.0
2017-Aug-12 16:00N 38°42' W 009°14'2 3.8
2017-Aug-12 15:30N 38°41' W 009°16'2 0.3
2017-Aug-12 08:59N 38°42' W 009°14'714.4
2017-Aug-12 08:30N 38°40' W 009°23'2 3.8
2017-Aug-12 08:00N 38°42' W 009°25'0 0.0
2017-Aug-12 07:30N 38°42' W 009°25'1 2.6
2017-Aug-12 07:00N 38°40' W 009°24'4 7.0
2017-Aug-12 06:30N 38°39' W 009°20'510.7
2017-Aug-12 05:59N 38°42' W 009°14'0 0.0
2017-Aug-12 05:30N 38°42' W 009°14'0 0.0
2017-Aug-12 05:00N 38°42' W 009°14'0 0.0
2017-Aug-12 04:30N 38°42' W 009°14'0 0.0
2017-Aug-12 04:00N 38°42' W 009°14'0 0.0
2017-Aug-12 03:30N 38°42' W 009°14'0 0.0
2017-Aug-12 03:00N 38°42' W 009°14'0 0.0
2017-Aug-12 02:29N 38°42' W 009°14'0 0.0
2017-Aug-12 02:00N 38°42' W 009°14'0 0.0
2017-Aug-12 01:28N 38°42' W 009°14'2 3.3
2017-Aug-12 01:00N 38°41' W 009°12'2 3.1
2017-Aug-12 00:30N 38°42' W 009°14'0 0.9
2017-Aug-12 00:00N 38°41' W 009°14'0 0.9
2017-Aug-11 23:30N 38°42' W 009°14'0 0.0
2017-Aug-11 23:00N 38°42' W 009°14'0 0.0
2017-Aug-11 22:30N 38°42' W 009°14'0 0.0
2017-Aug-11 21:56N 38°42' W 009°14'0 0.0
2017-Aug-11 21:29N 38°42' W 009°14'0 0.0
2017-Aug-11 21:00N 38°42' W 009°14'0 0.0
2017-Aug-11 20:30N 38°42' W 009°14'0 0.0
2017-Aug-11 20:00N 38°42' W 009°14'0 0.0
2017-Aug-11 19:30N 38°42' W 009°14'0 0.0
2017-Aug-11 19:00N 38°42' W 009°14'3 5.1
2017-Aug-11 18:31N 38°41' W 009°17'3 5.0
2017-Aug-11 18:00N 38°42' W 009°14'0 0.0
2017-Aug-11 17:30N 38°42' W 009°14'0 0.0
2017-Aug-11 08:15N 38°42' W 009°14'2 8.7
2017-Aug-11 08:00N 38°41' W 009°12'1 1.3
2017-Aug-11 07:30N 38°41' W 009°12'2 3.0
2017-Aug-11 07:00N 38°42' W 009°14'0 0.0
2017-Aug-11 06:30N 38°42' W 009°14'  

Dump ship's entire track history